Flight Track Log - Related Links

Times and Time Zones

All times are in EDT time to prevent confusion due to time zone crossing. See the N493S flight status page for this flight to view local times or setup timezone preferences in your user account.


Time Position Orientation Groundspeed Altitude Reporting Facility
EDT Latitude Longitude Course Direction KTS MPH feet Rate Location/Type
Fri 10:20:19 AM 37.4000 -121.9667 38° Northeast 171 197 2,900  Level Northern Cal TRACON
Fri 10:21:19 AM 37.4167 -121.9500 38° Northeast 212 244 5,100 1,200 Climbing Northern Cal TRACON
Fri 10:22:19 AM 37.3833 -121.8667 117° Southeast 275 316 5,300 1,680 Climbing Northern Cal TRACON
Fri 10:23:24 AM 37.3372 -121.7942 129° Southeast 279 321 8,600 3,071 Climbing Oakland Center
Fri 10:24:26 AM 37.2767 -121.7286 139° Southeast 285 328 11,800 2,634 Climbing Oakland Center
Fri 10:25:27 AM 37.2081 -121.6506 138° Southeast 330 380 14,000 2,164 Climbing Oakland Center
Fri 10:26:28 AM 37.1303 -121.5614 138° Southeast 376 433 16,200 2,213 Climbing Oakland Center
Fri 10:27:29 AM 37.0339 -121.4581 139° Southeast 402 463 18,500 2,311 Climbing Oakland Center
Fri 10:28:30 AM 36.9461 -121.3600 138° Southeast 420 483 20,900 2,311 Climbing Oakland Center
Fri 10:29:31 AM 36.8550 -121.2611 139° Southeast 432 497 23,200 2,213 Climbing Oakland Center
Fri 10:30:32 AM 36.7661 -121.1667 140° Southeast 441 507 25,400 2,195 Climbing Oakland Center
Fri 10:31:34 AM 36.6706 -121.0650 140° Southeast 450 518 27,700 2,000 Climbing Oakland Center
Fri 10:32:35 AM 36.5739 -120.9592 139° Southeast 460 529 29,500 1,672 Climbing Oakland Center
Fri 10:33:36 AM 36.4719 -120.8492 139° Southeast 483 556 31,100 1,820 Climbing Oakland Center
Fri 10:34:37 AM 36.3475 -120.7142 139° Southeast 495 570 33,200 1,770 Climbing Oakland Center
Fri 10:35:38 AM 36.2428 -120.6044 140° Southeast 494 568 34,700 885 Climbing Oakland Center
Fri 10:36:39 AM 36.1372 -120.4939 140° Southeast 495 570 35,000 148 Climbing Oakland Center
Fri 10:37:40 AM 36.0328 -120.3792 138° Southeast 499 574 35,000  Level Oakland Center
Fri 10:38:41 AM 35.9294 -120.2742 141° Southeast 477 549 35,000  Level Oakland Center
Fri 10:39:43 AM 35.8236 -120.1631 140° Southeast 493 567 35,000  Level Oakland Center
Fri 10:40:44 AM 35.7181 -120.0517 139° Southeast 495 570 35,000  Level Oakland Center
Fri 10:41:45 AM 35.6097 -119.9447 141° Southeast 495 570 35,000  Level Oakland Center
Fri 10:42:46 AM 35.4942 -119.8469 145° Southeast 499 574 35,000  Level Oakland Center
Fri 10:43:47 AM 35.3800 -119.7475 145° Southeast 499 574 35,000  Level Oakland Center
Fri 10:44:22 AM 35.3103 -119.6878 145° Southeast 503 579 35,000  Level Los Angeles Center
Fri 10:45:24 AM 35.1939 -119.5881 145° Southeast 506 582 35,000  Level Los Angeles Center
Fri 10:46:25 AM 35.0772 -119.4881 145° Southeast 511 588 35,000  Level Los Angeles Center
Fri 10:47:27 AM 34.9842 -119.4097 145° Southeast 508 585 35,000 -1,210 Level Los Angeles Center
Fri 10:48:29 AM 34.8228 -119.2728 145° Southeast 506 582 32,500 -2,419 Descending Los Angeles Center
Fri 10:49:31 AM 34.7081 -119.1775 146° Southeast 500 575 30,000 -2,323 Descending Los Angeles Center
Fri 10:50:33 AM 34.5994 -119.0850 145° Southeast 500 575 27,700 -2,341 Descending Los Angeles Center
Fri 10:51:34 AM 34.4844 -118.9894 146° Southeast 502 578 25,200 -2,390 Descending Los Angeles Center
Fri 10:52:36 AM 34.3739 -118.8975 146° Southeast 485 558 22,800 -2,516 Descending Los Angeles Center
Fri 10:53:38 AM 34.2292 -118.8350 160° South 456 525 20,000 -2,419 Descending Los Angeles Center
Fri 10:54:40 AM 34.1092 -118.7903 163° South 449 517 17,800 -2,129 Descending Los Angeles Center
Fri 10:55:42 AM 33.9917 -118.7481 163° South 445 512 15,600 -1,854 Descending Los Angeles Center
Fri 10:56:43 AM 33.8717 -118.7050 163° South 421 484 14,000 -780 Descending Los Angeles Center
Fri 10:57:45 AM 33.7753 -118.6692 163° South 403 464 14,000 -242 Level Los Angeles Center
Fri 10:58:47 AM 33.6792 -118.6353 164° South 369 425 13,500 -1,306 Descending Los Angeles Center
Fri 10:59:49 AM 33.5839 -118.5844 156° South 319 367 11,300 -1,984 Descending Los Angeles Center
Fri 11:00:51 AM 33.5822 -118.4919 91° East 283 326 9,400 -1,854 Descending Los Angeles Center
Fri 11:01:52 AM 33.5869 -118.4014 86° East 280 322 7,500 -1,805 Descending Los Angeles Center
Fri 11:02:54 AM 33.5939 -118.3128 85° East 275 316 5,700 -1,210 Descending Los Angeles Center
Fri 11:03:56 AM 33.6028 -118.2100 84° East 267 307 5,000 -339 Descending Los Angeles Center
Fri 11:04:58 AM 33.6206 -118.1303 75° East 261 300 5,000  Level Los Angeles Center
Fri 11:06:00 AM 33.6553 -118.0733 54° Northeast 222 255 5,000  Level Los Angeles Center
Fri 11:07:02 AM 33.6875 -118.0197 54° Northeast 208 239 5,000 -528 Level Los Angeles Center
Fri 11:08:05 AM 33.7167 -117.9667 57° Northeast 190 219 3,900 -1,256 Descending Southern California TRACON
Fri 11:09:11 AM 33.7500 -117.9000 59° Northeast 190 219 2,300 -1,050 Descending Southern California TRACON
Fri 11:10:05 AM 33.7500 -117.8500 90° East 157 181 1,800 -684 Descending Southern California TRACON
Fri 11:11:05 AM 33.7167 -117.8500 180° South 135 155 1,000 -800 Descending Southern California TRACON
Fri 11:12:05 AM 33.6833 -117.8667 203° Southwest 128 147 200 -800 Descending Southern California TRACON
Fri 11:14:00 AM 33.6757 -117.8682 132° Southeast  Level Estimated

Login

Don't have an account? Register now (free) for customized features, flight alerts, and more!